Time;durP1;ratioP1;P1;durP2;ratioP2;P2;SDS_P1;SDS_P2;PMS_P1;PMS_P2;Temp;Humidity;BMP_temperature;BMP_pressure;BME280_temperature;BME280_humidity;BME280_pressure;Samples;Min_cycle;Max_cycle;Signal;HPM_P1;HPM_P2
2023/05/21 00:00:59;;;;;;;;;;;;;;;14.23;63.67;101819.03;5079988;28;19959;-60
2023/05/21 00:03:26;;;;;;;;;;;;;;;14.22;63.27;101814.69;5076173;28;19946;-60
2023/05/21 00:05:52;;;;;;;;;;;;;;;14.21;63.50;101818.34;5074211;28;19916;-60
2023/05/21 00:08:17;;;;;;;;;;;;;;;14.20;63.89;101810.50;5074357;28;19916;-60
2023/05/21 00:10:42;;;;;;;;;;;;;;;14.21;63.66;101815.69;5078804;28;19917;-60
2023/05/21 00:13:09;;;;;;;;;;;;;;;14.18;63.76;101805.34;5074798;28;19916;-60
2023/05/21 00:15:34;;;;;;;;;;;;;;;14.18;64.47;101809.84;5082013;28;19921;-60
2023/05/21 00:17:59;;;;;;;;;;;;;;;14.16;64.61;101806.50;5074322;28;19912;-60
2023/05/21 00:20:24;;;;;;;;;;;;;;;14.14;64.33;101809.34;5070637;28;19920;-59
2023/05/21 00:22:50;;;;;;;;;;;;;;;14.14;64.69;101808.50;5073482;28;19913;-60
2023/05/21 00:25:15;;;;;;;;;;;;;;;14.13;64.72;101807.66;5074391;28;20009;-60
2023/05/21 00:27:40;;;;;;;;;;;;;;;14.12;64.70;101797.97;5068247;28;20059;-60
2023/05/21 00:30:06;;;;;;;;;;;;;;;14.11;64.75;101795.47;5079949;28;19913;-60
2023/05/21 00:32:31;;;;;;;;;;;;;;;14.10;65.03;101804.50;5073528;28;19916;-60
2023/05/21 00:34:57;;;;;;;;;;;;;;;14.12;64.91;101794.47;5077918;28;20015;-61
2023/05/21 00:37:23;;;;;;;;;;;;;;;14.12;64.93;101789.97;5071892;28;20392;-60
2023/05/21 00:39:48;;;;;;;;;;;;;;;14.12;64.96;101792.63;5068291;28;19928;-60
2023/05/21 00:42:16;;;;;;;;;;;;;;;14.12;65.13;101792.63;5068807;28;19920;-60
2023/05/21 00:44:42;;;;;;;;;;;;;;;14.12;65.47;101783.78;5068635;28;19916;-60
2023/05/21 00:47:07;;;;;;;;;;;;;;;14.10;65.21;101788.47;5072214;28;19916;-60
2023/05/21 00:49:33;;;;;;;;;;;;;;;14.05;65.22;101782.81;5075219;28;20533;-60
2023/05/21 00:52:00;;;;;;;;;;;;;;;14.07;65.67;101788.81;5070977;28;19924;-60
2023/05/21 00:54:25;;;;;;;;;;;;;;;14.00;65.63;101774.50;5072943;28;19919;-60
2023/05/21 00:56:50;;;;;;;;;;;;;;;14.05;65.36;101791.66;5072874;28;19912;-60
2023/05/21 00:59:16;;;;;;;;;;;;;;;14.05;65.23;101786.31;5068587;28;19917;-60
2023/05/21 01:01:44;;;;;;;;;;;;;;;14.04;65.63;101781.97;5081047;28;19956;-59
2023/05/21 01:04:10;;;;;;;;;;;;;;;14.05;65.44;101785.50;5075113;28;19916;-60
2023/05/21 01:06:36;;;;;;;;;;;;;;;14.04;65.66;101783.81;5073257;28;19923;-59
2023/05/21 01:09:03;;;;;;;;;;;;;;;14.02;65.55;101785.84;5070998;28;19958;-60
2023/05/21 01:11:35;;;;;;;;;;;;;;;14.03;65.98;101787.50;5071438;28;19931;-61
2023/05/21 01:14:01;;;;;;;;;;;;;;;14.03;65.88;101787.50;5081071;28;19920;-60
2023/05/21 01:16:27;;;;;;;;;;;;;;;14.02;65.84;101786.66;5070637;28;19924;-60
2023/05/21 01:18:52;;;;;;;;;;;;;;;14.00;65.65;101783.34;5079999;28;19916;-60
2023/05/21 01:21:19;;;;;;;;;;;;;;;13.97;65.75;101775.66;5085795;28;19916;-60
2023/05/21 01:23:44;;;;;;;;;;;;;;;13.94;65.93;101776.00;5080861;28;20510;-60
2023/05/21 01:26:11;;;;;;;;;;;;;;;13.91;66.01;101779.03;5077132;28;19923;-60
2023/05/21 01:28:37;;;;;;;;;;;;;;;13.89;65.95;101781.03;5070590;28;19948;-59
2023/05/21 01:31:10;;;;;;;;;;;;;;;13.88;66.26;101774.84;5069765;28;20858;-60
2023/05/21 01:33:39;;;;;;;;;;;;;;;13.88;66.23;101774.03;5073748;28;19923;-60
2023/05/21 01:36:08;;;;;;;;;;;;;;;13.88;66.05;101768.69;5067181;28;19917;-60
2023/05/21 01:38:40;;;;;;;;;;;;;;;13.88;66.12;101766.84;5071198;28;20377;-60
2023/05/21 01:41:16;;;;;;;;;;;;;;;13.88;66.25;101764.16;5070766;28;19917;-60
2023/05/21 01:43:43;;;;;;;;;;;;;;;13.88;66.55;101771.34;5070934;28;19923;-60
2023/05/21 01:46:09;;;;;;;;;;;;;;;13.88;66.34;101766.00;5068960;28;20420;-60
2023/05/21 01:48:34;;;;;;;;;;;;;;;13.88;66.65;101764.16;5068863;28;19916;-60
2023/05/21 01:51:02;;;;;;;;;;;;;;;13.91;66.87;101768.34;5070593;28;19923;-60
2023/05/21 01:53:27;;;;;;;;;;;;;;;13.92;66.66;101773.50;5068751;28;19920;-60
2023/05/21 01:55:53;;;;;;;;;;;;;;;13.94;66.52;101770.66;5069519;28;19913;-60
2023/05/21 01:58:19;;;;;;;;;;;;;;;13.96;67.05;101771.31;5072753;28;19920;-59
2023/05/21 02:00:45;;;;;;;;;;;;;;;13.99;66.77;101768.31;5068956;28;19955;-59
2023/05/21 02:03:10;;;;;;;;;;;;;;;14.01;67.21;101762.81;5069820;28;20052;-60
2023/05/21 02:05:35;;;;;;;;;;;;;;;14.00;66.92;101766.47;5079969;28;19918;-60
2023/05/21 02:08:01;;;;;;;;;;;;;;;14.00;67.27;101763.81;5067458;28;19923;-60
2023/05/21 02:10:26;;;;;;;;;;;;;;;14.00;67.07;101761.97;5071981;28;20393;-60
2023/05/21 02:12:51;;;;;;;;;;;;;;;14.01;67.28;101763.63;5073370;28;19989;-60
2023/05/21 02:15:18;;;;;;;;;;;;;;;14.01;67.70;101752.13;5072760;28;20003;-59
2023/05/21 02:17:43;;;;;;;;;;;;;;;14.02;67.65;101759.13;5078230;28;19912;-59
2023/05/21 02:20:12;;;;;;;;;;;;;;;14.01;67.51;101763.63;5076115;28;20340;-59
2023/05/21 02:22:41;;;;;;;;;;;;;;;14.01;67.79;101758.28;5078113;28;19947;-59
2023/05/21 02:25:07;;;;;;;;;;;;;;;14.03;67.96;101758.13;5077937;28;20447;-59
2023/05/21 02:27:34;;;;;;;;;;;;;;;14.02;67.69;101762.63;5089513;28;19916;-59
2023/05/21 02:29:59;;;;;;;;;;;;;;;14.03;67.70;101755.44;5088685;28;19919;-60
2023/05/21 02:32:24;;;;;;;;;;;;;;;14.03;68.25;101755.44;5071151;28;19916;-60
2023/05/21 02:34:49;;;;;;;;;;;;;;;14.02;68.21;101761.78;5078665;28;19918;-60
2023/05/21 02:37:16;;;;;;;;;;;;;;;14.03;68.34;101761.63;5073774;28;20084;-60
2023/05/21 02:39:41;;;;;;;;;;;;;;;14.02;68.14;101759.97;5070161;28;20340;-60
2023/05/21 02:42:06;;;;;;;;;;;;;;;14.02;68.08;101759.13;5078822;28;19912;-60
2023/05/21 02:44:31;;;;;;;;;;;;;;;14.02;68.27;101745.78;5078126;28;19966;-60
2023/05/21 02:46:56;;;;;;;;;;;;;;;14.01;68.53;101755.63;5080196;28;20378;-60
2023/05/21 02:49:22;;;;;;;;;;;;;;;14.02;68.49;101741.25;5074180;28;19912;-60
2023/05/21 02:51:47;;;;;;;;;;;;;;;14.03;68.57;101740.25;5083229;28;20546;-60
2023/05/21 02:54:12;;;;;;;;;;;;;;;14.03;68.73;101740.25;5082458;28;19916;-60
2023/05/21 02:56:37;;;;;;;;;;;;;;;14.05;68.99;101750.75;5076288;28;19920;-60
2023/05/21 02:59:02;;;;;;;;;;;;;;;14.06;68.64;101755.09;5073820;28;19918;-61
2023/05/21 03:01:28;;;;;;;;;;;;;;;14.05;68.66;101743.59;5084214;28;19986;-60
2023/05/21 03:03:53;;;;;;;;;;;;;;;14.06;68.83;101739.06;5074652;28;19987;-60
2023/05/21 03:06:18;;;;;;;;;;;;;;;14.07;69.17;101738.91;5070889;28;19917;-60
2023/05/21 03:08:43;;;;;;;;;;;;;;;14.08;69.42;101737.91;5074052;28;19920;-60
2023/05/21 03:11:08;;;;;;;;;;;;;;;14.09;69.45;101739.56;5074251;28;20418;-60
2023/05/21 03:13:34;;;;;;;;;;;;;;;14.10;69.68;101737.72;5072667;28;19920;-60
2023/05/21 03:15:59;;;;;;;;;;;;;;;14.10;69.43;101733.22;5076815;28;19920;-60
2023/05/21 03:18:24;;;;;;;;;;;;;;;14.10;69.49;101729.72;5086935;28;19927;-60
2023/05/21 03:20:49;;;;;;;;;;;;;;;14.12;69.66;101738.38;5075458;28;19922;-60
2023/05/21 03:23:15;;;;;;;;;;;;;;;14.13;69.61;101729.38;5082281;28;19917;-59
2023/05/21 03:25:40;;;;;;;;;;;;;;;14.14;69.42;101733.69;5078348;28;20011;-60
2023/05/21 03:28:05;;;;;;;;;;;;;;;14.16;69.38;101723.69;5073832;28;19916;-60
2023/05/21 03:30:30;;;;;;;;;;;;;;;14.14;69.73;101712.34;5075526;28;20328;-60
2023/05/21 03:32:56;;;;;;;;;;;;;;;14.14;69.56;101717.69;5072683;28;19926;-59
2023/05/21 03:35:21;;;;;;;;;;;;;;;14.13;69.91;101724.84;5084738;28;19932;-60
2023/05/21 03:37:47;;;;;;;;;;;;;;;14.14;69.54;101721.19;5080277;28;19916;-60
2023/05/21 03:40:12;;;;;;;;;;;;;;;14.13;70.03;101719.50;5081846;28;20499;-60
2023/05/21 03:42:37;;;;;;;;;;;;;;;14.13;69.74;101724.84;5080739;28;20007;-62
2023/05/21 03:45:03;;;;;;;;;;;;;;;14.15;69.72;101716.66;5071188;28;20385;-60
2023/05/21 03:47:28;;;;;;;;;;;;;;;14.14;69.46;101715.00;5076137;28;19928;-60
2023/05/21 03:49:53;;;;;;;;;;;;;;;14.13;69.70;101732.03;5077767;28;19916;-60
2023/05/21 03:52:18;;;;;;;;;;;;;;;14.13;69.77;101730.19;5083199;28;19995;-60
2023/05/21 03:54:43;;;;;;;;;;;;;;;14.12;69.85;101733.03;5078220;28;19961;-60
2023/05/21 03:57:08;;;;;;;;;;;;;;;14.13;69.76;101729.38;5082179;28;19923;-60
2023/05/21 03:59:34;;;;;;;;;;;;;;;14.10;69.98;101730.53;5082465;28;20538;-60
2023/05/21 04:01:59;;;;;;;;;;;;;;;14.10;70.31;101727.03;5089068;28;19923;-60
2023/05/21 04:04:24;;;;;;;;;;;;;;;14.08;70.26;101723.72;5077257;28;19924;-60
2023/05/21 04:06:50;;;;;;;;;;;;;;;14.06;70.40;101723.06;5083571;28;20113;-60
2023/05/21 04:09:15;;;;;;;;;;;;;;;14.06;69.96;101733.75;5083246;28;19917;-60
2023/05/21 04:11:40;;;;;;;;;;;;;;;14.06;70.33;101734.56;5083894;28;19919;-59
2023/05/21 04:14:05;;;;;;;;;;;;;;;14.06;70.70;101725.72;5083546;28;20038;-60
2023/05/21 04:16:33;;;;;;;;;;;;;;;14.07;70.56;101730.06;5083510;28;19927;-60
2023/05/21 04:18:58;;;;;;;;;;;;;;;14.09;70.83;101733.38;5068436;28;19916;-60
2023/05/21 04:21:24;;;;;;;;;;;;;;;14.10;70.50;101729.72;5074413;28;19927;-60
2023/05/21 04:23:49;;;;;;;;;;;;;;;14.10;70.33;101729.72;5083291;28;19938;-60
2023/05/21 04:26:15;;;;;;;;;;;;;;;14.11;70.67;101731.38;5072490;28;20426;-60
2023/05/21 04:28:41;;;;;;;;;;;;;;;14.10;70.90;101735.88;5073624;28;19923;-60
2023/05/21 04:31:08;;;;;;;;;;;;;;;14.09;70.79;101731.56;5076167;28;20030;-60
2023/05/21 04:33:34;;;;;;;;;;;;;;;14.10;71.03;101727.03;5077037;28;19999;-60
2023/05/21 04:36:00;;;;;;;;;;;;;;;14.09;70.89;101723.53;5083298;28;19930;-60
2023/05/21 04:38:25;;;;;;;;;;;;;;;14.09;71.17;101725.38;5074442;28;20474;-60
2023/05/21 04:40:50;;;;;;;;;;;;;;;14.09;71.08;101730.72;5071083;28;19981;-60
2023/05/21 04:43:16;;;;;;;;;;;;;;;14.10;70.93;101724.38;5072811;28;19931;-60
2023/05/21 04:45:41;;;;;;;;;;;;;;;14.10;71.33;101735.88;5080740;28;19974;-60
2023/05/21 04:48:07;;;;;;;;;;;;;;;14.12;71.48;101727.69;5083901;28;20289;-59
2023/05/21 04:50:32;;;;;;;;;;;;;;;14.14;71.30;101731.03;5082452;28;19916;-59
2023/05/21 04:52:58;;;;;;;;;;;;;;;14.15;71.31;101738.03;5082492;28;19916;-60
2023/05/21 04:55:23;;;;;;;;;;;;;;;14.16;71.58;101734.38;5078541;28;19912;-60
2023/05/21 04:57:48;;;;;;;;;;;;;;;14.15;71.30;101730.84;5072589;28;19916;-59
2023/05/21 05:00:15;;;;;;;;;;;;;;;14.17;71.80;101741.41;5069689;28;19924;-60
2023/05/21 05:02:40;;;;;;;;;;;;;;;14.18;71.44;101737.72;5078230;28;19912;-60
2023/05/21 05:05:05;;;;;;;;;;;;;;;14.19;71.79;101737.56;5072932;28;19961;-60
2023/05/21 05:07:31;;;;;;;;;;;;;;;14.19;71.41;101729.53;5076943;28;19916;-60
2023/05/21 05:09:56;;;;;;;;;;;;;;;14.20;71.62;101739.22;5078528;28;20023;-60
2023/05/21 05:12:21;;;;;;;;;;;;;;;14.21;71.57;101732.88;5071967;28;19920;-60
2023/05/21 05:14:46;;;;;;;;;;;;;;;14.24;71.56;101745.03;5071736;28;19952;-60
2023/05/21 05:17:14;;;;;;;;;;;;;;;14.24;71.49;101737.03;5079089;28;20080;-59
2023/05/21 05:19:39;;;;;;;;;;;;;;;14.24;71.93;101732.50;5078421;28;20404;-60
2023/05/21 05:22:05;;;;;;;;;;;;;;;14.25;71.59;101739.53;5076691;28;20428;-60
2023/05/21 05:24:30;;;;;;;;;;;;;;;14.26;71.90;101733.19;5078767;28;19916;-59
2023/05/21 05:26:55;;;;;;;;;;;;;;;14.29;71.95;101733.84;5070441;28;20537;-59
2023/05/21 05:29:21;;;;;;;;;;;;;;;14.29;71.90;101728.50;5074359;28;19916;-59
2023/05/21 05:31:46;;;;;;;;;;;;;;;14.30;71.92;101731.00;5074960;28;19946;-60
2023/05/21 05:34:11;;;;;;;;;;;;;;;14.33;72.22;101735.97;5075788;28;19916;-60
2023/05/21 05:36:36;;;;;;;;;;;;;;;14.34;72.25;101726.13;5073336;28;19923;-60
2023/05/21 05:39:02;;;;;;;;;;;;;;;14.37;72.12;101733.78;5082842;28;19920;-60
2023/05/21 05:41:27;;;;;;;;;;;;;;;14.37;72.54;101734.63;5082140;28;19955;-59
2023/05/21 05:43:52;;;;;;;;;;;;;;;14.38;72.18;101732.78;5074233;28;19913;-60
2023/05/21 05:46:17;;;;;;;;;;;;;;;14.39;72.34;101731.78;5068384;28;20456;-59
2023/05/21 05:48:42;;;;;;;;;;;;;;;14.42;72.63;101728.75;5070655;28;19916;-59
2023/05/21 05:51:08;;;;;;;;;;;;;;;14.44;72.33;101732.94;5071691;28;19939;-59
2023/05/21 05:53:33;;;;;;;;;;;;;;;14.47;72.59;101734.47;5076036;28;20359;-59
2023/05/21 05:55:58;;;;;;;;;;;;;;;14.48;72.52;101728.94;5077314;28;19922;-59
2023/05/21 05:58:23;;;;;;;;;;;;;;;14.52;72.71;101732.94;5072798;28;20071;-60
2023/05/21 06:00:49;;;;;;;;;;;;;;;14.55;73.14;101729.91;5075707;28;19985;-59
2023/05/21 06:03:15;;;;;;;;;;;;;;;14.59;72.72;101729.56;5080192;28;19958;-60
2023/05/21 06:05:40;;;;;;;;;;;;;;;14.63;73.12;101738.88;5084319;28;20378;-60
2023/05/21 06:08:06;;;;;;;;;;;;;;;14.66;73.07;101738.53;5081184;28;19923;-60
2023/05/21 06:10:31;;;;;;;;;;;;;;;14.68;73.28;101741.84;5080780;28;19955;-60
2023/05/21 06:12:56;;;;;;;;;;;;;;;14.71;73.23;101736.16;5080126;28;19920;-60
2023/05/21 06:15:21;;;;;;;;;;;;;;;14.77;73.00;101735.47;5081205;28;19923;-60
2023/05/21 06:17:46;;;;;;;;;;;;;;;14.78;73.25;101735.31;5073045;28;20457;-61
2023/05/21 06:20:12;;;;;;;;;;;;;;;14.87;73.49;101738.75;5073865;28;19917;-60
2023/05/21 06:22:37;;;;;;;;;;;;;;;14.91;73.34;101729.34;5079745;28;20381;-60
2023/05/21 06:25:02;;;;;;;;;;;;;;;14.96;73.40;101731.50;5077721;28;19954;-60
2023/05/21 06:27:27;;;;;;;;;;;;;;;14.98;73.23;101730.31;5076063;28;19921;-61
2023/05/21 06:29:53;;;;;;;;;;;;;;;15.01;73.67;101729.94;5071331;28;20751;-60
2023/05/21 06:32:20;;;;;;;;;;;;;;;15.09;73.77;101731.75;5079683;28;19916;-61
2023/05/21 06:34:45;;;;;;;;;;;;;;;15.16;73.92;101730.03;5071638;28;20003;-61
2023/05/21 06:37:10;;;;;;;;;;;;;;;15.23;74.08;101736.31;5072478;28;20003;-61
2023/05/21 06:39:35;;;;;;;;;;;;;;;15.31;74.09;101730.06;5075092;28;20381;-59
2023/05/21 06:42:01;;;;;;;;;;;;;;;15.39;74.20;101738.03;5069920;28;19928;-59
2023/05/21 06:44:26;;;;;;;;;;;;;;;15.44;73.52;101733.81;5072996;28;20014;-60
2023/05/21 06:46:51;;;;;;;;;;;;;;;15.47;73.55;101736.13;5083175;28;19920;-60
2023/05/21 06:49:16;;;;;;;;;;;;;;;15.54;73.46;101730.88;5078425;28;19974;-60
2023/05/21 06:51:41;;;;;;;;;;;;;;;15.58;73.33;101725.97;5071223;28;20014;-59
2023/05/21 06:54:07;;;;;;;;;;;;;;;15.63;73.02;101724.47;5079694;28;20381;-60
2023/05/21 06:56:32;;;;;;;;;;;;;;;15.66;73.13;101725.97;5077210;28;19924;-60
2023/05/21 06:58:58;;;;;;;;;;;;;;;15.70;72.79;101719.22;5086990;28;19934;-60
2023/05/21 07:01:23;;;;;;;;;;;;;;;15.75;73.21;101731.03;5080830;28;19920;-60
2023/05/21 07:03:48;;;;;;;;;;;;;;;15.82;72.81;101732.97;5086948;28;19920;-60
2023/05/21 07:06:13;;;;;;;;;;;;;;;15.88;73.21;101718.84;5077292;28;19916;-60
2023/05/21 07:08:38;;;;;;;;;;;;;;;15.95;72.77;101733.19;5083837;28;20011;-60
2023/05/21 07:11:04;;;;;;;;;;;;;;;15.99;72.90;101724.59;5070221;28;19920;-60
2023/05/21 07:13:29;;;;;;;;;;;;;;;16.05;72.48;101720.34;5077757;28;19920;-60
2023/05/21 07:15:54;;;;;;;;;;;;;;;16.10;72.54;101715.25;5070877;28;19962;-60
2023/05/21 07:18:19;;;;;;;;;;;;;;;16.16;72.45;101709.16;5075008;28;19943;-60
2023/05/21 07:20:45;;;;;;;;;;;;;;;16.23;72.55;101707.41;5070261;28;19927;-60
2023/05/21 07:23:10;;;;;;;;;;;;;;;16.28;72.67;101710.34;5080140;28;20294;-61
2023/05/21 07:25:35;;;;;;;;;;;;;;;16.34;72.52;101706.09;5071221;28;19936;-60
2023/05/21 07:28:00;;;;;;;;;;;;;;;16.41;72.40;101709.69;5073209;28;19985;-60
2023/05/21 07:30:25;;;;;;;;;;;;;;;16.46;72.03;101714.47;5077304;28;20393;-60
2023/05/21 07:32:50;;;;;;;;;;;;;;;16.52;71.78;101706.53;5087416;28;19912;-60
2023/05/21 07:35:16;;;;;;;;;;;;;;;16.59;71.73;101707.44;5070996;28;20286;-61
2023/05/21 07:37:41;;;;;;;;;;;;;;;16.68;71.59;101713.53;5077305;28;19952;-60
2023/05/21 07:40:06;;;;;;;;;;;;;;;16.75;71.54;101719.81;5079406;28;19924;-60
2023/05/21 07:42:31;;;;;;;;;;;;;;;16.82;71.36;101714.53;5079913;28;19916;-60
2023/05/21 07:44:57;;;;;;;;;;;;;;;16.91;71.27;101719.56;5088170;28;19916;-60
2023/05/21 07:47:22;;;;;;;;;;;;;;;16.97;71.00;101712.59;5074681;28;20022;-60
2023/05/21 07:49:47;;;;;;;;;;;;;;;17.04;70.58;101703.59;5086270;28;19916;-60
2023/05/21 07:52:12;;;;;;;;;;;;;;;17.15;71.04;101706.81;5080780;28;19920;-60
2023/05/21 07:54:37;;;;;;;;;;;;;;;17.21;70.39;101706.03;5080248;28;19912;-60
2023/05/21 07:57:03;;;;;;;;;;;;;;;17.28;69.98;101704.22;5081715;28;20392;-60
2023/05/21 07:59:28;;;;;;;;;;;;;;;17.34;70.00;101706.97;5077922;28;19919;-60
2023/05/21 08:01:53;;;;;;;;;;;;;;;17.40;69.76;101697.31;5081162;28;19920;-60
2023/05/21 08:04:18;;;;;;;;;;;;;;;17.45;69.88;101700.25;5083916;28;19916;-60
2023/05/21 08:06:44;;;;;;;;;;;;;;;17.51;69.64;101709.38;5077570;28;19919;-60
2023/05/21 08:09:09;;;;;;;;;;;;;;;17.52;69.29;101711.88;5076125;28;19923;-60
2023/05/21 08:11:34;;;;;;;;;;;;;;;17.54;69.37;101707.13;5069721;28;20000;-59
2023/05/21 08:13:59;;;;;;;;;;;;;;;17.58;69.10;101710.25;5080217;28;19966;-60
2023/05/21 08:16:25;;;;;;;;;;;;;;;17.60;69.22;101708.19;5083756;28;19916;-60
2023/05/21 08:18:50;;;;;;;;;;;;;;;17.60;68.74;101717.09;5071607;28;20373;-60
2023/05/21 08:21:16;;;;;;;;;;;;;;;17.64;68.92;101709.50;5077429;28;19917;-60
2023/05/21 08:23:41;;;;;;;;;;;;;;;17.67;68.76;101708.25;5086658;28;19916;-60
2023/05/21 08:26:07;;;;;;;;;;;;;;;17.63;68.65;101711.31;5080109;28;20015;-60
2023/05/21 08:28:34;;;;;;;;;;;;;;;17.67;69.15;101709.13;5080374;28;20439;-60
2023/05/21 08:30:59;;;;;;;;;;;;;;;17.73;68.92;101712.88;5079350;28;19959;-60
2023/05/21 08:33:25;;;;;;;;;;;;;;;17.78;68.97;101711.25;5080330;28;19966;-60
2023/05/21 08:35:50;;;;;;;;;;;;;;;17.84;68.83;101698.88;5078048;28;19964;-60
2023/05/21 08:38:16;;;;;;;;;;;;;;;17.89;68.71;101707.19;5080949;28;20015;-59
2023/05/21 08:40:41;;;;;;;;;;;;;;;17.99;68.82;101691.56;5078678;28;20019;-60
2023/05/21 08:43:11;;;;;;;;;;;;;;;18.10;68.83;101690.16;5077244;28;20011;-60
2023/05/21 08:45:40;;;;;;;;;;;;;;;18.17;68.50;101691.00;5078588;28;20274;-60
2023/05/21 08:48:07;;;;;;;;;;;;;;;18.22;67.74;101688.56;5074923;28;19916;-60
2023/05/21 08:50:32;;;;;;;;;;;;;;;18.31;68.09;101692.75;5067532;28;20369;-60
2023/05/21 08:52:59;;;;;;;;;;;;;;;18.45;67.72;101693.59;5067747;28;20014;-60
2023/05/21 08:55:25;;;;;;;;;;;;;;;18.57;67.83;101689.31;5078824;28;19977;-60
2023/05/21 08:57:52;;;;;;;;;;;;;;;18.70;67.29;101689.38;5067242;28;19920;-60
2023/05/21 09:00:19;;;;;;;;;;;;;;;18.84;67.10;101684.84;5069534;28;19924;-60
2023/05/21 09:02:45;;;;;;;;;;;;;;;18.97;67.07;101682.19;5073789;28;19993;-60
2023/05/21 09:05:11;;;;;;;;;;;;;;;19.15;67.26;101684.28;5067380;28;20046;-60
2023/05/21 09:07:43;;;;;;;;;;;;;;;19.28;66.64;101684.25;5070646;28;20393;-60
2023/05/21 09:10:11;;;;;;;;;;;;;;;19.37;66.08;101674.97;5078275;28;20378;-60
2023/05/21 09:12:36;;;;;;;;;;;;;;;19.49;65.76;101683.22;5067624;28;20270;-60
2023/05/21 09:15:02;;;;;;;;;;;;;;;19.59;65.68;101682.81;5069461;28;20370;-60
2023/05/21 09:17:27;;;;;;;;;;;;;;;19.71;65.60;101682.00;5068823;28;19992;-60
2023/05/21 09:20:13;;;;;;;;;;;;;;;19.80;65.20;101685.28;5071831;28;20270;-60
2023/05/21 09:22:39;;;;;;;;;;;;;;;19.93;64.53;101685.22;5076969;28;19972;-61
2023/05/21 09:25:06;;;;;;;;;;;;;;;20.01;64.04;101686.88;5071925;28;20018;-61
2023/05/21 09:27:31;;;;;;;;;;;;;;;20.07;63.77;101677.94;5076620;28;19924;-60
2023/05/21 09:29:57;;;;;;;;;;;;;;;20.16;63.33;101683.91;5080972;28;19913;-60
2023/05/21 09:32:22;;;;;;;;;;;;;;;20.21;63.40;101679.53;5086973;28;20002;-61
2023/05/21 09:34:47;;;;;;;;;;;;;;;20.25;63.72;101667.31;5087293;28;19912;-61
2023/05/21 09:37:12;;;;;;;;;;;;;;;20.37;63.32;101678.25;5087585;28;19981;-60
2023/05/21 09:39:39;;;;;;;;;;;;;;;20.48;62.95;101674.88;5088757;28;20008;-60
2023/05/21 09:42:04;;;;;;;;;;;;;;;20.60;63.13;101669.66;5074436;28;20374;-60
2023/05/21 09:44:30;;;;;;;;;;;;;;;20.69;62.81;101679.13;5081381;28;19974;-61
2023/05/21 09:46:57;;;;;;;;;;;;;;;20.77;62.38;101670.78;5090409;28;19912;-61
2023/05/21 09:49:26;;;;;;;;;;;;;;;20.93;61.93;101678.34;5078728;28;20010;-61
2023/05/21 09:51:58;;;;;;;;;;;;;;;21.08;62.14;101667.22;5079983;28;20559;-61
2023/05/21 09:54:23;;;;;;;;;;;;;;;21.15;61.48;101661.78;5084020;28;19994;-61
2023/05/21 09:56:50;;;;;;;;;;;;;;;21.25;61.67;101660.25;5077589;28;20011;-61
2023/05/21 09:59:15;;;;;;;;;;;;;;;21.42;61.03;101675.94;5083323;28;19920;-60
2023/05/21 10:01:42;;;;;;;;;;;;;;;21.52;59.95;101660.84;5080014;28;19920;-60
2023/05/21 10:04:08;;;;;;;;;;;;;;;21.60;59.68;101662.44;5077134;28;19954;-61
2023/05/21 10:06:36;;;;;;;;;;;;;;;21.63;59.56;101659.28;5073647;28;19955;-61
2023/05/21 10:09:04;;;;;;;;;;;;;;;21.70;59.30;101664.63;5080699;28;19995;-61
2023/05/21 10:11:30;;;;;;;;;;;;;;;21.71;58.84;101664.41;5076941;28;19920;-61
2023/05/21 10:14:08;;;;;;;;;;;;;;;21.78;58.76;101667.03;5080591;28;19938;-59
2023/05/21 10:16:33;;;;;;;;;;;;;;;21.88;58.88;101651.94;5078643;28;20432;-61
2023/05/21 10:18:59;;;;;;;;;;;;;;;22.00;59.18;101654.72;5074777;28;20000;-60
2023/05/21 10:21:25;;;;;;;;;;;;;;;22.15;58.73;101647.06;5073109;28;19920;-60
2023/05/21 10:23:50;;;;;;;;;;;;;;;22.29;58.25;101647.75;5080187;28;19920;-61
2023/05/21 10:26:17;;;;;;;;;;;;;;;22.31;57.98;101655.63;5074589;28;19912;-61
2023/05/21 10:28:43;;;;;;;;;;;;;;;22.31;57.60;101645.63;5085189;28;19999;-61
2023/05/21 10:31:08;;;;;;;;;;;;;;;22.37;57.40;101641.16;5081613;28;20349;-61
2023/05/21 10:33:34;;;;;;;;;;;;;;;22.41;57.10;101639.66;5082088;28;19916;-61
2023/05/21 10:36:00;;;;;;;;;;;;;;;22.50;57.17;101638.25;5073311;28;20404;-61
2023/05/21 10:38:26;;;;;;;;;;;;;;;22.56;57.04;101632.78;5073096;28;19931;-61
2023/05/21 10:40:52;;;;;;;;;;;;;;;22.60;56.76;101632.31;5072931;28;19916;-59
2023/05/21 10:43:35;;;;;;;;;;;;;;;22.51;56.42;101620.97;5081959;28;19920;-59
2023/05/21 10:46:15;;;;;;;;;;;;;;;22.51;56.67;101620.97;5081195;28;19918;-59
2023/05/21 10:48:59;;;;;;;;;;;;;;;22.62;56.52;101614.78;5084595;28;19920;-59
2023/05/21 10:51:35;;;;;;;;;;;;;;;22.61;55.97;101618.53;5080076;28;19923;-60
2023/05/21 10:54:18;;;;;;;;;;;;;;;22.58;56.33;101612.78;5081586;28;19985;-60
2023/05/21 10:56:53;;;;;;;;;;;;;;;22.61;56.75;101618.53;5085643;28;19955;-60
2023/05/21 10:59:30;;;;;;;;;;;;;;;22.68;57.62;101603.00;5082388;28;19962;-60
2023/05/21 11:01:55;;;;;;;;;;;;;;;22.85;57.48;101600.50;5087206;28;19961;-60
2023/05/21 11:04:27;;;;;;;;;;;;;;;23.04;56.78;101598.50;5081343;28;20304;-60
2023/05/21 11:06:53;;;;;;;;;;;;;;;23.02;55.95;101593.31;5083551;28;19948;-60
2023/05/21 11:09:18;;;;;;;;;;;;;;;23.08;56.55;101599.69;5086783;28;20340;-60
2023/05/21 11:11:57;;;;;;;;;;;;;;;23.19;55.82;101590.75;5082939;28;19974;-60
2023/05/21 11:14:25;;;;;;;;;;;;;;;23.27;55.37;101597.69;5079727;28;20385;-60
2023/05/21 11:16:50;;;;;;;;;;;;;;;23.37;54.89;101592.47;5078269;28;19920;-60
2023/05/21 11:19:16;;;;;;;;;;;;;;;23.42;54.38;101579.06;5082865;28;20329;-60
2023/05/21 11:21:41;;;;;;;;;;;;;;;23.47;54.52;101585.41;5081931;28;20457;-60
2023/05/21 11:24:07;;;;;;;;;;;;;;;23.58;54.28;101578.34;5089172;28;19923;-60
2023/05/21 11:26:47;;;;;;;;;;;;;;;23.68;54.22;101588.56;5070422;28;19921;-60
2023/05/21 11:29:13;;;;;;;;;;;;;;;23.80;54.20;101573.13;5073410;28;20328;-60
2023/05/21 11:31:43;;;;;;;;;;;;;;;23.87;53.86;101572.97;5070795;28;19912;-60
2023/05/21 11:34:15;;;;;;;;;;;;;;;24.01;54.08;101574.34;5078071;28;19912;-61
2023/05/21 11:36:43;;;;;;;;;;;;;;;24.08;53.29;101566.88;5084604;28;20385;-60
2023/05/21 11:39:11;;;;;;;;;;;;;;;24.18;53.45;101571.66;5080525;28;19920;-61
2023/05/21 11:41:52;;;;;;;;;;;;;;;24.22;52.56;101573.66;5082866;28;19920;-60
2023/05/21 11:44:20;;;;;;;;;;;;;;;24.19;52.92;101566.00;5076821;28;19920;-60
2023/05/21 11:46:47;;;;;;;;;;;;;;;24.30;52.69;101564.34;5072358;28;19955;-60
2023/05/21 11:49:12;;;;;;;;;;;;;;;24.40;52.70;101545.50;5083310;28;19916;-60
2023/05/21 11:51:38;;;;;;;;;;;;;;;24.58;52.94;101555.31;5080587;28;19942;-61
2023/05/21 11:54:03;;;;;;;;;;;;;;;24.65;52.19;101553.25;5080787;28;19958;-60
2023/05/21 11:56:30;;;;;;;;;;;;;;;24.75;52.23;101553.41;5085510;28;19920;-61
2023/05/21 11:58:56;;;;;;;;;;;;;;;24.74;51.72;101540.91;5081827;28;19959;-60
2023/05/21 12:01:21;;;;;;;;;;;;;;;24.86;51.79;101544.34;5087966;28;19967;-60
2023/05/21 12:03:47;;;;;;;;;;;;;;;24.95;51.96;101548.31;5083887;28;19920;-60
2023/05/21 12:06:12;;;;;;;;;;;;;;;25.06;51.28;101538.44;5082347;28;19998;-60
2023/05/21 12:08:38;;;;;;;;;;;;;;;25.13;51.05;101539.06;5071776;28;20455;-60
2023/05/21 12:11:03;;;;;;;;;;;;;;;25.27;51.47;101536.81;5070195;28;19920;-60
2023/05/21 12:13:28;;;;;;;;;;;;;;;25.36;50.89;101539.91;5077326;28;19946;-60
2023/05/21 12:15:53;;;;;;;;;;;;;;;25.44;50.93;101534.84;5080776;28;20376;-60
2023/05/21 12:18:19;;;;;;;;;;;;;;;25.54;50.37;101537.72;5072676;28;19916;-60
2023/05/21 12:20:44;;;;;;;;;;;;;;;25.60;49.88;101525.81;5079151;28;19947;-60
2023/05/21 12:23:18;;;;;;;;;;;;;;;25.64;49.22;101523.41;5075584;28;19920;-60
2023/05/21 12:25:43;;;;;;;;;;;;;;;25.54;48.92;101526.84;5074233;28;19912;-60
2023/05/21 12:28:08;;;;;;;;;;;;;;;25.47;48.87;101522.69;5067505;28;20297;-61
2023/05/21 12:30:33;;;;;;;;;;;;;;;25.48;49.22;101524.31;5082385;28;20389;-60